Time;durP1;ratioP1;P1;durP2;ratioP2;P2;SDS_P1;SDS_P2;PMS_P1;PMS_P2;Temp;Humidity;BMP_temperature;BMP_pressure;BME280_temperature;BME280_humidity;BME280_pressure;Samples;Min_cycle;Max_cycle;Signal;HPM_P1;HPM_P2
2022/04/04 00:02:03;;;;;;;;;;;;;;;2.62;94.44;101775.25;5040407;28;19921;-72
2022/04/04 00:04:29;;;;;;;;;;;;;;;2.59;94.27;101770.09;5044899;28;20435;-71
2022/04/04 00:06:54;;;;;;;;;;;;;;;2.59;94.08;101768.34;5046497;28;19917;-71
2022/04/04 00:09:19;;;;;;;;;;;;;;;2.58;94.36;101763.16;5046188;28;19924;-71
2022/04/04 00:11:45;;;;;;;;;;;;;;;2.59;94.25;101757.97;5047009;28;19921;-71
2022/04/04 00:14:10;;;;;;;;;;;;;;;2.61;94.27;101751.06;5046626;28;20432;-71
2022/04/04 00:16:35;;;;;;;;;;;;;;;2.61;93.96;101748.47;5047884;28;20005;-71
2022/04/04 00:19:01;;;;;;;;;;;;;;;2.62;94.25;101741.53;5046495;28;20583;-72
2022/04/04 00:21:26;;;;;;;;;;;;;;;2.66;93.97;101738.09;5049712;28;19921;-72
2022/04/04 00:23:51;;;;;;;;;;;;;;;2.68;94.07;101738.06;5047200;28;20667;-74
2022/04/04 00:26:17;;;;;;;;;;;;;;;2.67;94.26;101725.97;5046008;28;19927;-72
2022/04/04 00:28:42;;;;;;;;;;;;;;;2.66;94.58;101721.63;5047163;28;20355;-72
2022/04/04 00:31:07;;;;;;;;;;;;;;;2.71;94.22;101718.19;5046752;28;19928;-72
2022/04/04 00:33:32;;;;;;;;;;;;;;;2.74;94.07;101713.00;5062514;28;19916;-72
2022/04/04 00:35:58;;;;;;;;;;;;;;;2.78;94.00;101700.88;5045719;28;19921;-71
2022/04/04 00:38:23;;;;;;;;;;;;;;;2.77;94.32;101693.97;5046313;28;19932;-72
2022/04/04 00:40:48;;;;;;;;;;;;;;;2.75;94.45;101690.53;5049000;28;20008;-72
2022/04/04 00:43:14;;;;;;;;;;;;;;;2.76;94.84;101689.63;5077700;28;19916;-72
2022/04/04 00:45:43;;;;;;;;;;;;;;;2.80;94.91;101695.72;5048309;28;19924;-72
2022/04/04 00:48:08;;;;;;;;;;;;;;;2.80;94.82;101686.19;5045533;28;19921;-72
2022/04/04 00:50:33;;;;;;;;;;;;;;;2.84;94.81;101679.25;5047600;28;20513;-71
2022/04/04 00:52:59;;;;;;;;;;;;;;;2.74;95.45;101678.41;5045154;28;19920;-72
2022/04/04 00:55:24;;;;;;;;;;;;;;;2.74;95.42;101671.47;5046968;28;19947;-72
2022/04/04 00:57:51;;;;;;;;;;;;;;;2.81;95.45;101664.56;5047648;28;19927;-71
2022/04/04 01:00:17;;;;;;;;;;;;;;;2.80;96.13;101662.84;5078246;28;19924;-72
2022/04/04 01:02:42;;;;;;;;;;;;;;;2.75;96.23;101649.88;5046578;28;20562;-72
2022/04/04 01:05:09;;;;;;;;;;;;;;;2.77;96.83;101650.72;5045669;28;20016;-72
2022/04/04 01:07:38;;;;;;;;;;;;;;;2.83;96.90;101647.25;5049302;28;19931;-72
2022/04/04 01:10:04;;;;;;;;;;;;;;;2.80;97.02;101631.69;5048300;28;19924;-71
2022/04/04 01:12:29;;;;;;;;;;;;;;;2.87;97.06;101630.81;5052571;28;19917;-72
2022/04/04 01:14:54;;;;;;;;;;;;;;;2.90;96.46;101624.75;5050204;28;20366;-72
2022/04/04 01:17:21;;;;;;;;;;;;;;;2.92;96.81;101618.69;5048772;28;19924;-72
2022/04/04 01:19:47;;;;;;;;;;;;;;;2.94;96.76;101614.38;5052101;28;19960;-71
2022/04/04 01:22:13;;;;;;;;;;;;;;;2.97;97.14;101610.88;5046336;28;19979;-72
2022/04/04 01:24:39;;;;;;;;;;;;;;;2.97;97.01;101617.81;5050527;28;19996;-72
2022/04/04 01:27:05;;;;;;;;;;;;;;;3.00;97.21;101602.22;5063202;28;19917;-71
2022/04/04 01:29:31;;;;;;;;;;;;;;;2.96;97.65;101603.97;5079994;28;20003;-72
2022/04/04 01:31:56;;;;;;;;;;;;;;;3.03;97.55;101591.84;5062725;28;20462;-72
2022/04/04 01:34:22;;;;;;;;;;;;;;;3.02;97.14;101584.91;5047903;28;19917;-71
2022/04/04 01:36:47;;;;;;;;;;;;;;;3.01;97.38;101580.59;5048550;28;20341;-71
2022/04/04 01:39:13;;;;;;;;;;;;;;;3.02;97.46;101570.22;5047638;28;20037;-71
2022/04/04 01:41:38;;;;;;;;;;;;;;;3.16;97.03;101572.75;5051121;28;20258;-71
2022/04/04 01:44:04;;;;;;;;;;;;;;;3.25;96.66;101558.88;5047975;28;19917;-72
2022/04/04 01:46:29;;;;;;;;;;;;;;;3.27;96.52;101567.50;5049117;28;19925;-72
2022/04/04 01:48:56;;;;;;;;;;;;;;;3.31;96.51;101552.78;5049213;28;19931;-73
2022/04/04 01:51:22;;;;;;;;;;;;;;;3.35;96.49;101546.69;5048703;28;19959;-72
2022/04/04 01:53:47;;;;;;;;;;;;;;;3.48;96.35;101537.97;5046564;28;19937;-73
2022/04/04 01:56:13;;;;;;;;;;;;;;;3.79;95.51;101536.91;5046338;28;19917;-73
2022/04/04 01:58:39;;;;;;;;;;;;;;;4.12;94.03;101519.31;5048051;28;19923;-72
2022/04/04 02:01:24;;;;;;;;;;;;;;;4.33;92.14;101506.09;5048681;28;19923;-72
2022/04/04 02:03:50;;;;;;;;;;;;;;;4.46;90.87;101488.59;5050910;28;19917;-73
2022/04/04 02:06:15;;;;;;;;;;;;;;;4.55;89.13;101478.97;5047765;28;19917;-71
2022/04/04 02:08:42;;;;;;;;;;;;;;;4.68;87.96;101461.50;5050944;28;19939;-72
2022/04/04 02:11:07;;;;;;;;;;;;;;;4.67;87.41;101450.19;5047962;28;19921;-72
2022/04/04 02:13:32;;;;;;;;;;;;;;;4.71;87.25;101443.22;5049080;28;19924;-73
2022/04/04 02:16:00;;;;;;;;;;;;;;;4.74;87.19;101435.38;5049163;28;19921;-73
2022/04/04 02:18:26;;;;;;;;;;;;;;;4.81;86.65;101429.19;5040738;28;19924;-73
2022/04/04 02:20:51;;;;;;;;;;;;;;;4.93;85.69;101420.38;5049101;28;19924;-73
2022/04/04 02:23:18;;;;;;;;;;;;;;;4.99;84.84;101412.47;5047570;28;19936;-73
2022/04/04 02:25:45;;;;;;;;;;;;;;;4.99;85.42;101404.66;5050237;28;19923;-71
2022/04/04 02:28:11;;;;;;;;;;;;;;;5.03;85.00;101397.66;5047055;28;19929;-72
2022/04/04 02:30:36;;;;;;;;;;;;;;;5.01;85.57;101397.69;5049721;28;19931;-72
2022/04/04 02:33:01;;;;;;;;;;;;;;;5.05;84.30;101393.28;5045676;28;19932;-71
2022/04/04 02:35:27;;;;;;;;;;;;;;;5.07;84.42;101379.34;5026431;28;19921;-73
2022/04/04 02:37:53;;;;;;;;;;;;;;;5.07;84.23;101381.09;5025611;28;19950;-72
2022/04/04 02:40:18;;;;;;;;;;;;;;;5.05;84.06;101370.72;5027967;28;19928;-71
2022/04/04 02:42:43;;;;;;;;;;;;;;;5.14;82.95;101363.66;5028720;28;20390;-72
2022/04/04 02:45:09;;;;;;;;;;;;;;;5.16;82.97;101344.50;5027791;28;19921;-72
2022/04/04 02:47:34;;;;;;;;;;;;;;;5.23;81.17;101338.31;5028175;28;19948;-71
2022/04/04 02:49:59;;;;;;;;;;;;;;;5.28;79.65;101326.94;5027422;28;20262;-71
2022/04/04 02:52:25;;;;;;;;;;;;;;;5.31;79.76;101309.50;5026835;28;19925;-72
2022/04/04 02:54:50;;;;;;;;;;;;;;;5.34;80.02;101306.84;5067507;28;19920;-72
2022/04/04 02:57:17;;;;;;;;;;;;;;;5.30;79.06;101305.19;5047234;28;19917;-71
2022/04/04 02:59:43;;;;;;;;;;;;;;;5.38;79.22;101294.63;5050182;28;19925;-71
2022/04/04 03:02:08;;;;;;;;;;;;;;;5.33;79.42;101305.13;5043631;28;19916;-72
2022/04/04 03:04:35;;;;;;;;;;;;;;;5.40;78.40;101282.44;5049716;28;19971;-71
2022/04/04 03:07:00;;;;;;;;;;;;;;;5.34;79.31;101275.59;5047658;28;19924;-72
2022/04/04 03:09:25;;;;;;;;;;;;;;;5.41;78.63;101277.19;5039114;28;19925;-73
2022/04/04 03:11:51;;;;;;;;;;;;;;;5.43;78.20;101261.53;5047117;28;19999;-73
2022/04/04 03:14:16;;;;;;;;;;;;;;;5.45;77.80;101256.28;5046720;28;19916;-73
2022/04/04 03:16:41;;;;;;;;;;;;;;;5.48;78.42;101261.47;5045933;28;19921;-72
2022/04/04 03:19:07;;;;;;;;;;;;;;;5.49;77.28;101240.56;5061442;28;19925;-72
2022/04/04 03:21:32;;;;;;;;;;;;;;;5.53;77.05;101239.63;5050099;28;19928;-73
2022/04/04 03:23:59;;;;;;;;;;;;;;;5.59;77.10;101243.88;5048410;28;19929;-72
2022/04/04 03:26:25;;;;;;;;;;;;;;;5.62;77.18;101235.13;5045168;28;19924;-73
2022/04/04 03:28:50;;;;;;;;;;;;;;;5.60;76.40;101235.16;5048018;28;19928;-72
2022/04/04 03:31:16;;;;;;;;;;;;;;;5.64;76.78;101225.53;5047446;28;19978;-73
2022/04/04 03:33:43;;;;;;;;;;;;;;;5.65;76.99;101229.84;5048695;28;20358;-72
2022/04/04 03:36:09;;;;;;;;;;;;;;;5.67;76.68;101225.47;5068535;28;19928;-71
2022/04/04 03:38:35;;;;;;;;;;;;;;;5.64;76.88;101212.50;5026961;28;19925;-73
2022/04/04 03:41:00;;;;;;;;;;;;;;;5.66;77.30;101205.50;5048974;28;20385;-72
2022/04/04 03:43:26;;;;;;;;;;;;;;;5.70;77.55;101204.53;5043143;28;19928;-71
2022/04/04 03:45:51;;;;;;;;;;;;;;;5.66;78.03;101195.94;5043070;28;19960;-71
2022/04/04 03:48:17;;;;;;;;;;;;;;;5.69;77.09;101190.66;5043447;28;19925;-71
2022/04/04 03:50:45;;;;;;;;;;;;;;;5.70;77.85;101186.28;5044637;28;19944;-72
2022/04/04 03:53:10;;;;;;;;;;;;;;;5.71;77.16;101178.44;5044940;28;19932;-70
2022/04/04 03:55:39;;;;;;;;;;;;;;;5.73;77.25;101168.81;5046777;28;19917;-72
2022/04/04 03:58:06;;;;;;;;;;;;;;;5.81;76.16;101160.00;5049872;28;21282;-72
2022/04/04 04:00:31;;;;;;;;;;;;;;;5.78;76.78;101160.06;5047217;28;20296;-71
2022/04/04 04:02:56;;;;;;;;;;;;;;;5.73;77.37;101145.38;5044763;28;20000;-72
2022/04/04 04:05:22;;;;;;;;;;;;;;;5.78;77.10;101141.81;5045088;28;19964;-71
2022/04/04 04:07:47;;;;;;;;;;;;;;;5.78;77.24;101140.06;5044904;28;19928;-71
2022/04/04 04:10:12;;;;;;;;;;;;;;;5.77;77.76;101137.47;5045136;28;19924;-72
2022/04/04 04:12:39;;;;;;;;;;;;;;;5.74;78.18;101135.81;5046514;28;19920;-71
2022/04/04 04:15:05;;;;;;;;;;;;;;;5.75;78.34;101124.50;5035933;28;20082;-72
2022/04/04 04:17:31;;;;;;;;;;;;;;;5.79;78.01;101126.13;5041612;28;20032;-71
2022/04/04 04:22:36;;;;;;;;;;;;;;;5.78;78.73;101127.03;5045078;28;20355;-72
2022/04/04 04:25:02;;;;;;;;;;;;;;;5.81;79.00;101108.69;5045450;28;19952;-70
2022/04/04 04:27:28;;;;;;;;;;;;;;;5.76;79.16;101118.38;5047738;28;19925;-70
2022/04/04 04:29:53;;;;;;;;;;;;;;;5.76;79.33;101113.19;5045121;28;19924;-71
2022/04/04 04:32:19;;;;;;;;;;;;;;;5.72;79.51;101112.41;5025909;28;19917;-71
2022/04/04 04:34:48;;;;;;;;;;;;;;;5.71;79.85;101086.34;5027159;28;19917;-71
2022/04/04 04:37:14;;;;;;;;;;;;;;;5.71;78.81;101092.44;5025898;28;19917;-71
2022/04/04 04:39:39;;;;;;;;;;;;;;;5.69;79.46;101093.31;5027163;28;19921;-70
2022/04/04 04:42:05;;;;;;;;;;;;;;;5.68;78.95;101071.63;5029306;28;19917;-71
2022/04/04 04:44:30;;;;;;;;;;;;;;;5.70;79.11;101063.75;5030749;28;20637;-71
2022/04/04 04:46:56;;;;;;;;;;;;;;;5.69;79.25;101062.91;5029358;28;19924;-71
2022/04/04 04:49:22;;;;;;;;;;;;;;;5.66;79.72;101049.94;5029829;28;20012;-71
2022/04/04 04:51:47;;;;;;;;;;;;;;;5.70;78.85;101037.69;5030410;28;20701;-70
2022/04/04 04:54:12;;;;;;;;;;;;;;;5.74;77.31;101021.09;5045026;28;20728;-71
2022/04/04 04:56:37;;;;;;;;;;;;;;;5.75;77.23;101008.91;5040755;28;20016;-70
2022/04/04 04:59:03;;;;;;;;;;;;;;;5.75;78.94;101009.78;5047346;28;19917;-70
2022/04/04 05:01:28;;;;;;;;;;;;;;;5.75;79.27;101016.72;5049007;28;19936;-71
2022/04/04 05:03:53;;;;;;;;;;;;;;;5.76;77.38;101002.81;5064615;28;19917;-71
2022/04/04 05:06:19;;;;;;;;;;;;;;;5.73;76.89;100993.31;5049208;28;19924;-71
2022/04/04 05:08:44;;;;;;;;;;;;;;;5.71;79.08;100988.16;5049914;28;20012;-71
2022/04/04 05:11:09;;;;;;;;;;;;;;;5.57;79.04;101014.53;5050021;28;19928;-70
2022/04/04 05:13:35;;;;;;;;;;;;;;;5.55;80.51;101000.69;5050096;28;20007;-71
2022/04/04 05:16:04;;;;;;;;;;;;;;;5.47;82.24;101020.00;5049189;28;20330;-72
2022/04/04 05:18:29;;;;;;;;;;;;;;;5.38;84.04;101021.91;5049233;28;19939;-71
2022/04/04 05:20:55;;;;;;;;;;;;;;;5.27;84.68;101026.50;5048805;28;20398;-72
2022/04/04 05:23:20;;;;;;;;;;;;;;;5.09;85.02;101017.34;5048707;28;19928;-70
2022/04/04 05:25:45;;;;;;;;;;;;;;;5.02;85.64;101020.94;5049637;28;19962;-71
2022/04/04 05:28:10;;;;;;;;;;;;;;;4.98;85.91;101020.16;5048297;28;19975;-71
2022/04/04 05:30:36;;;;;;;;;;;;;;;4.91;83.85;100995.97;5048471;28;19963;-72
2022/04/04 05:33:01;;;;;;;;;;;;;;;4.88;84.02;100984.78;5047767;28;19925;-72
2022/04/04 05:35:27;;;;;;;;;;;;;;;4.85;84.47;100995.28;5049706;28;20053;-71
2022/04/04 05:37:54;;;;;;;;;;;;;;;4.83;84.58;100997.91;5048915;28;19925;-71
2022/04/04 05:40:20;;;;;;;;;;;;;;;4.85;85.22;100988.31;5048167;28;20007;-71
2022/04/04 05:42:46;;;;;;;;;;;;;;;4.84;84.82;100977.94;5049060;28;20016;-70
2022/04/04 05:45:12;;;;;;;;;;;;;;;4.93;84.65;100967.34;5049880;28;19921;-73
2022/04/04 05:47:37;;;;;;;;;;;;;;;4.92;85.45;100965.63;5048652;28;19932;-73
2022/04/04 05:50:02;;;;;;;;;;;;;;;4.99;85.50;100967.19;5048397;28;19928;-73
2022/04/04 05:52:27;;;;;;;;;;;;;;;5.01;86.42;100961.97;5049530;28;19978;-72
2022/04/04 05:54:54;;;;;;;;;;;;;;;5.04;86.54;100970.56;5049418;28;20000;-73
2022/04/04 05:57:21;;;;;;;;;;;;;;;5.04;87.29;100970.56;5048978;28;19917;-72
2022/04/04 05:59:46;;;;;;;;;;;;;;;5.00;87.40;100958.50;5049910;28;20027;-72
2022/04/04 06:02:13;;;;;;;;;;;;;;;5.02;87.45;100974.94;5048036;28;19924;-73
2022/04/04 06:04:38;;;;;;;;;;;;;;;5.05;86.26;100947.97;5049102;28;19928;-73
2022/04/04 06:07:04;;;;;;;;;;;;;;;5.08;87.12;100956.56;5047672;28;19924;-71
2022/04/04 06:09:29;;;;;;;;;;;;;;;5.07;87.95;100948.81;5055003;28;19979;-74
2022/04/04 06:11:54;;;;;;;;;;;;;;;5.02;88.86;100951.50;5044459;28;19974;-71
2022/04/04 06:14:19;;;;;;;;;;;;;;;4.99;89.30;100941.16;5045582;28;20019;-72
2022/04/04 06:16:45;;;;;;;;;;;;;;;4.95;90.09;100957.75;5045538;28;19967;-73
2022/04/04 06:19:10;;;;;;;;;;;;;;;4.92;91.17;100958.66;5045277;28;19921;-73
2022/04/04 06:21:36;;;;;;;;;;;;;;;4.99;91.77;100943.75;5047350;28;19955;-73
2022/04/04 06:24:02;;;;;;;;;;;;;;;4.98;92.46;100949.84;5045167;28;19924;-71
2022/04/04 06:26:28;;;;;;;;;;;;;;;4.98;93.22;100947.25;5048518;28;19924;-71
2022/04/04 06:28:54;;;;;;;;;;;;;;;4.99;93.53;100946.34;5047475;28;19924;-73
2022/04/04 06:31:19;;;;;;;;;;;;;;;5.08;92.65;100929.69;5047216;28;19939;-72
2022/04/04 06:33:45;;;;;;;;;;;;;;;5.08;93.24;100927.91;5048436;28;20003;-72
2022/04/04 06:36:11;;;;;;;;;;;;;;;5.11;93.07;100927.88;5039616;28;19921;-72
2022/04/04 06:38:36;;;;;;;;;;;;;;;5.11;91.74;100911.41;5049158;28;19990;-72
2022/04/04 06:41:01;;;;;;;;;;;;;;;5.06;92.41;100908.03;5046656;28;19971;-72
2022/04/04 06:43:27;;;;;;;;;;;;;;;5.08;92.66;100888.84;5048029;28;19917;-71
2022/04/04 06:45:52;;;;;;;;;;;;;;;5.15;92.28;100883.53;5046734;28;19921;-72
2022/04/04 06:48:17;;;;;;;;;;;;;;;5.10;92.48;100897.50;5046275;28;19928;-72
2022/04/04 06:50:42;;;;;;;;;;;;;;;5.04;92.78;100895.06;5045836;28;19920;-73
2022/04/04 06:53:08;;;;;;;;;;;;;;;4.98;94.38;100894.34;5046078;28;19932;-73
2022/04/04 06:55:33;;;;;;;;;;;;;;;4.94;96.82;100891.78;5048314;28;19923;-72
2022/04/04 06:57:58;;;;;;;;;;;;;;;4.87;97.64;100884.16;5047804;28;19917;-73
2022/04/04 07:00:24;;;;;;;;;;;;;;;4.82;98.93;100888.59;5048081;28;19916;-72
2022/04/04 07:02:49;;;;;;;;;;;;;;;4.83;99.47;100883.34;5048089;28;19924;-71
2022/04/04 07:05:16;;;;;;;;;;;;;;;4.80;100.00;100886.03;5046153;28;20335;-72
2022/04/04 07:07:42;;;;;;;;;;;;;;;4.76;100.00;100880.03;5047275;28;19920;-72
2022/04/04 07:10:07;;;;;;;;;;;;;;;4.75;100.00;100882.69;5046852;28;20305;-73
2022/04/04 07:12:34;;;;;;;;;;;;;;;4.73;100.00;100856.69;5046507;28;19921;-72
2022/04/04 07:15:00;;;;;;;;;;;;;;;4.77;100.00;100857.47;5046121;28;19924;-74
2022/04/04 07:17:25;;;;;;;;;;;;;;;4.73;100.00;100853.22;5046876;28;19917;-73
2022/04/04 07:19:52;;;;;;;;;;;;;;;4.78;100.00;100849.63;5044049;28;19929;-71
2022/04/04 07:22:17;;;;;;;;;;;;;;;4.80;100.00;100860.00;5046034;28;19929;-73
2022/04/04 07:24:43;;;;;;;;;;;;;;;4.74;100.00;100847.97;5047025;28;19948;-71
2022/04/04 07:27:08;;;;;;;;;;;;;;;4.76;100.00;100841.00;5043740;28;19917;-70
2022/04/04 07:29:33;;;;;;;;;;;;;;;4.79;100.00;100847.91;5045292;28;19929;-73
2022/04/04 07:31:59;;;;;;;;;;;;;;;4.79;100.00;100846.13;5044162;28;19924;-72
2022/04/04 07:34:24;;;;;;;;;;;;;;;4.84;100.00;100838.22;5044327;28;19940;-72
2022/04/04 07:36:52;;;;;;;;;;;;;;;4.87;100.00;100827.75;5044381;28;20380;-72
2022/04/04 07:39:19;;;;;;;;;;;;;;;4.86;100.00;100825.16;5045275;28;19935;-71
2022/04/04 07:41:45;;;;;;;;;;;;;;;4.84;100.00;100824.38;5046147;28;20404;-71
2022/04/04 07:44:10;;;;;;;;;;;;;;;4.83;100.00;100833.91;5044739;28;19927;-71
2022/04/04 07:46:35;;;;;;;;;;;;;;;4.79;100.00;100816.66;5047299;28;20009;-71
2022/04/04 07:49:01;;;;;;;;;;;;;;;4.73;100.00;100820.25;5044726;28;19936;-72
2022/04/04 07:51:26;;;;;;;;;;;;;;;4.78;100.00;100822.75;5045712;28;20752;-71
2022/04/04 07:53:51;;;;;;;;;;;;;;;4.74;100.00;100832.34;5046040;28;19921;-72
2022/04/04 07:56:19;;;;;;;;;;;;;;;4.62;100.00;100817.88;5045078;28;19920;-71
2022/04/04 07:58:44;;;;;;;;;;;;;;;4.67;100.00;100815.19;5046514;28;19989;-71
2022/04/04 08:01:09;;;;;;;;;;;;;;;4.59;100.00;100807.53;5044880;28;19920;-71
2022/04/04 08:03:35;;;;;;;;;;;;;;;4.61;100.00;100804.94;5041657;28;20333;-72
2022/04/04 08:06:01;;;;;;;;;;;;;;;4.56;100.00;100806.75;5045395;28;19940;-71
2022/04/04 08:08:27;;;;;;;;;;;;;;;4.59;100.00;100802.34;5046124;28;20090;-70
2022/04/04 08:10:52;;;;;;;;;;;;;;;4.61;100.00;100795.34;5047054;28;20442;-72
2022/04/04 08:13:17;;;;;;;;;;;;;;;4.62;100.00;100796.22;5046438;28;19928;-72
2022/04/04 08:15:44;;;;;;;;;;;;;;;4.55;100.00;100794.63;5046886;28;19987;-73
2022/04/04 08:18:09;;;;;;;;;;;;;;;4.59;100.00;100783.28;5045079;28;19924;-72
2022/04/04 08:20:34;;;;;;;;;;;;;;;4.64;100.00;100771.88;5046429;28;19925;-72
2022/04/04 08:23:00;;;;;;;;;;;;;;;4.62;100.00;100768.44;5046488;28;19924;-72
2022/04/04 08:25:25;;;;;;;;;;;;;;;4.67;100.00;100762.28;5046840;28;19943;-72
2022/04/04 08:27:50;;;;;;;;;;;;;;;4.65;100.00;100762.31;5046254;28;19924;-72
2022/04/04 08:30:17;;;;;;;;;;;;;;;4.67;100.00;100763.13;5045992;28;20019;-69
2022/04/04 08:32:43;;;;;;;;;;;;;;;4.66;100.00;100756.22;5045029;28;19956;-72
2022/04/04 08:35:09;;;;;;;;;;;;;;;4.68;100.00;100762.25;5044614;28;20010;-75
2022/04/04 08:37:35;;;;;;;;;;;;;;;4.67;100.00;100752.72;5047290;28;19935;-75
2022/04/04 08:40:02;;;;;;;;;;;;;;;4.65;100.00;100751.91;5046871;28;20028;-75
2022/04/04 08:42:28;;;;;;;;;;;;;;;4.70;100.00;100755.25;5047024;28;20392;-74
2022/04/04 08:44:54;;;;;;;;;;;;;;;4.71;100.00;100759.56;5047415;28;19921;-74
2022/04/04 08:47:20;;;;;;;;;;;;;;;4.80;100.00;100753.28;5045283;28;19917;-72
2022/04/04 08:49:46;;;;;;;;;;;;;;;4.82;100.00;100745.44;5047709;28;20015;-74
2022/04/04 08:52:11;;;;;;;;;;;;;;;4.93;100.00;100733.03;5045070;28;20016;-72
2022/04/04 08:54:36;;;;;;;;;;;;;;;4.93;100.00;100735.63;5048510;28;19925;-72
2022/04/04 08:57:02;;;;;;;;;;;;;;;4.93;100.00;100738.22;5046731;28;19916;-73
2022/04/04 08:59:27;;;;;;;;;;;;;;;5.01;100.00;100719.81;5047317;28;19921;-73
2022/04/04 09:01:53;;;;;;;;;;;;;;;5.21;100.00;100727.09;5046047;28;19920;-72
2022/04/04 09:04:18;;;;;;;;;;;;;;;5.28;100.00;100719.97;5047128;28;19944;-74
2022/04/04 09:06:52;;;;;;;;;;;;;;;5.26;100.00;100717.41;5046566;28;19920;-69
2022/04/04 09:09:18;;;;;;;;;;;;;;;5.31;100.00;100718.13;5024276;28;20298;-73
2022/04/04 09:11:50;;;;;;;;;;;;;;;5.28;100.00;100710.44;5028706;28;20293;-73
2022/04/04 09:14:20;;;;;;;;;;;;;;;5.34;100.00;100715.47;5026804;28;20061;-73
2022/04/04 09:16:52;;;;;;;;;;;;;;;5.38;100.00;100719.69;5029265;28;19956;-74
2022/04/04 09:19:26;;;;;;;;;;;;;;;5.33;100.00;100711.13;5042551;28;19924;-74
2022/04/04 09:21:51;;;;;;;;;;;;;;;5.30;100.00;100706.00;5048725;28;20427;-73
2022/04/04 09:24:19;;;;;;;;;;;;;;;5.31;100.00;100699.91;5046786;28;19925;-74
2022/04/04 09:26:45;;;;;;;;;;;;;;;5.23;100.00;100707.94;5050276;28;19923;-73
2022/04/04 09:29:12;;;;;;;;;;;;;;;5.36;100.00;100708.47;5050496;28;19929;-76
2022/04/04 09:31:51;;;;;;;;;;;;;;;5.32;100.00;100701.63;5053527;28;20298;-74
2022/04/04 09:34:16;;;;;;;;;;;;;;;5.39;100.00;100697.09;5047836;28;19970;-74
2022/04/04 09:36:45;;;;;;;;;;;;;;;5.42;100.00;100674.41;5051020;28;19917;-73
2022/04/04 09:39:10;;;;;;;;;;;;;;;5.41;100.00;100682.28;5050514;28;19921;-76
2022/04/04 09:41:37;;;;;;;;;;;;;;;5.45;100.00;100670.00;5051739;28;20011;-75
2022/04/04 09:44:04;;;;;;;;;;;;;;;5.47;100.00;100679.47;5050936;28;20469;-73
2022/04/04 09:46:31;;;;;;;;;;;;;;;5.51;100.00;100672.47;5053476;28;19917;-74
2022/04/04 09:49:13;;;;;;;;;;;;;;;5.57;100.00;100670.50;5051115;28;19921;-73
2022/04/04 09:51:43;;;;;;;;;;;;;;;5.56;100.00;100671.44;5042608;28;20268;-74
2022/04/04 09:54:11;;;;;;;;;;;;;;;5.63;100.00;100666.88;5049524;28;19921;-73
2022/04/04 09:56:36;;;;;;;;;;;;;;;5.62;100.00;100662.59;5053424;28;19948;-74
2022/04/04 09:59:02;;;;;;;;;;;;;;;5.64;100.00;100672.94;5050875;28;19967;-73
2022/04/04 10:01:29;;;;;;;;;;;;;;;5.64;100.00;100660.75;5052718;28;19974;-74
2022/04/04 10:03:55;;;;;;;;;;;;;;;5.67;100.00;100663.28;5051015;28;19917;-73
2022/04/04 10:06:22;;;;;;;;;;;;;;;5.71;100.00;100649.28;5047057;28;19982;-73
2022/04/04 10:08:51;;;;;;;;;;;;;;;5.77;100.00;100671.69;5049849;28;19924;-74
2022/04/04 10:11:17;;;;;;;;;;;;;;;5.76;100.00;100640.44;5047619;28;19982;-74
2022/04/04 10:13:43;;;;;;;;;;;;;;;5.77;100.00;100650.84;5050493;28;19921;-74
2022/04/04 10:16:09;;;;;;;;;;;;;;;5.84;100.00;100641.09;5047820;28;20397;-74
2022/04/04 10:18:35;;;;;;;;;;;;;;;5.78;100.00;100646.47;5052267;28;19916;-75
2022/04/04 10:21:01;;;;;;;;;;;;;;;5.79;100.00;100632.53;5050207;28;19925;-74
2022/04/04 10:23:27;;;;;;;;;;;;;;;5.86;100.00;100631.44;5050409;28;20278;-75
2022/04/04 10:25:53;;;;;;;;;;;;;;;5.88;100.00;100627.03;5051422;28;19921;-74
2022/04/04 10:28:34;;;;;;;;;;;;;;;5.85;100.00;100624.53;5049470;28;19921;-74
2022/04/04 10:31:01;;;;;;;;;;;;;;;5.93;100.00;100616.47;5048476;28;19935;-75
2022/04/04 10:33:26;;;;;;;;;;;;;;;5.90;100.00;100620.03;5040971;28;19970;-74
2022/04/04 10:35:59;;;;;;;;;;;;;;;5.95;100.00;100620.75;5051429;28;20652;-74
2022/04/04 10:38:28;;;;;;;;;;;;;;;5.95;100.00;100623.38;5048465;28;19921;-73
2022/04/04 10:40:53;;;;;;;;;;;;;;;5.90;100.00;100622.63;5050330;28;19917;-74
2022/04/04 10:43:19;;;;;;;;;;;;;;;5.87;100.00;100607.94;5048885;28;19925;-74
2022/04/04 10:45:52;;;;;;;;;;;;;;;5.95;100.00;100612.94;5049873;28;19916;-74
2022/04/04 10:48:18;;;;;;;;;;;;;;;5.94;100.00;100603.41;5048978;28;20007;-74
2022/04/04 10:50:44;;;;;;;;;;;;;;;5.98;100.00;100601.53;5037661;28;20401;-73
2022/04/04 10:53:10;;;;;;;;;;;;;;;6.07;100.00;100592.59;5035801;28;19924;-75
2022/04/04 10:55:36;;;;;;;;;;;;;;;6.08;100.00;100591.69;5080128;28;19917;-74
2022/04/04 10:58:20;;;;;;;;;;;;;;;6.10;100.00;100593.38;5046273;28;19982;-73
2022/04/04 11:00:54;;;;;;;;;;;;;;;6.11;100.00;100578.56;5049374;28;20004;-73
2022/04/04 11:03:35;;;;;;;;;;;;;;;6.09;100.00;100580.34;5046337;28;20003;-75
2022/04/04 11:08:57;;;;;;;;;;;;;;;6.10;100.00;100580.31;5039603;28;19927;-73
2022/04/04 11:11:39;;;;;;;;;;;;;;;6.19;100.00;100579.16;5045582;28;19928;-74
2022/04/04 11:14:05;;;;;;;;;;;;;;;6.16;100.00;100574.06;5048061;28;19923;-72
2022/04/04 11:16:50;;;;;;;;;;;;;;;6.19;100.00;100571.31;5048728;28;19920;-74
2022/04/04 11:19:18;;;;;;;;;;;;;;;6.23;100.00;100572.94;5053588;28;20000;-74
2022/04/04 11:21:43;;;;;;;;;;;;;;;6.25;100.00;100563.31;5041686;28;19964;-74
2022/04/04 11:24:09;;;;;;;;;;;;;;;6.30;100.00;100564.00;5049236;28;19960;-74
2022/04/04 11:26:35;;;;;;;;;;;;;;;6.29;100.00;100562.28;5048260;28;20388;-74
2022/04/04 11:29:01;;;;;;;;;;;;;;;6.21;100.00;100566.91;5047582;28;19921;-74
2022/04/04 11:31:26;;;;;;;;;;;;;;;6.33;100.00;100569.13;5036045;28;20397;-73
2022/04/04 11:33:53;;;;;;;;;;;;;;;6.32;100.00;100559.59;5049920;28;19917;-73
2022/04/04 11:36:22;;;;;;;;;;;;;;;6.42;100.00;100556.66;5047443;28;20366;-74
2022/04/04 11:38:50;;;;;;;;;;;;;;;6.44;100.00;100553.13;5048605;28;20362;-74
2022/04/04 11:41:16;;;;;;;;;;;;;;;6.47;100.00;100546.94;5048073;28;19917;-73
2022/04/04 11:43:47;;;;;;;;;;;;;;;6.46;100.00;100550.44;5047907;28;20599;-74
2022/04/04 11:46:14;;;;;;;;;;;;;;;6.45;100.00;100546.97;5046168;28;20042;-74
2022/04/04 11:48:47;;;;;;;;;;;;;;;6.45;100.00;100557.41;5047612;28;19929;-74
2022/04/04 11:51:13;;;;;;;;;;;;;;;6.47;100.00;100557.38;5048355;28;19917;-74
2022/04/04 11:53:38;;;;;;;;;;;;;;;6.46;100.00;100538.22;5048168;28;20398;-73
2022/04/04 11:56:08;;;;;;;;;;;;;;;6.51;100.00;100545.91;5080453;28;19916;-73
2022/04/04 11:58:37;;;;;;;;;;;;;;;6.57;100.00;100537.88;5047416;28;19943;-74
2022/04/04 12:01:04;;;;;;;;;;;;;;;6.58;100.00;100543.94;5045953;28;19928;-73
2022/04/04 12:03:30;;;;;;;;;;;;;;;6.62;100.00;100527.25;5047640;28;20615;-75
2022/04/04 12:05:56;;;;;;;;;;;;;;;6.60;100.00;100532.56;5049632;28;19924;-73
2022/04/04 12:08:22;;;;;;;;;;;;;;;6.64;100.00;100525.47;5047063;28;19978;-74
2022/04/04 12:10:48;;;;;;;;;;;;;;;6.66;100.00;100534.09;5048463;28;19924;-74
2022/04/04 12:13:17;;;;;;;;;;;;;;;6.68;100.00;100519.19;5047317;28;19924;-74
2022/04/04 12:15:44;;;;;;;;;;;;;;;6.73;100.00;100519.03;5047625;28;20385;-74
2022/04/04 12:18:09;;;;;;;;;;;;;;;6.74;100.00;100520.75;5047884;28;19925;-74
2022/04/04 12:20:37;;;;;;;;;;;;;;;6.74;100.00;100523.34;5048058;28;19928;-74
2022/04/04 12:25:45;;;;;;;;;;;;;;;6.72;100.00;100518.19;5047052;28;19927;-73
2022/04/04 12:28:10;;;;;;;;;;;;;;;6.76;100.00;100519.81;5047345;28;19925;-73
2022/04/04 12:30:37;;;;;;;;;;;;;;;6.82;100.00;100518.72;5047848;28;19917;-73
2022/04/04 12:33:10;;;;;;;;;;;;;;;6.76;100.00;100514.59;5046470;28;20019;-72
2022/04/04 12:35:45;;;;;;;;;;;;;;;6.77;100.00;100516.28;5061088;28;20432;-72
2022/04/04 12:38:22;;;;;;;;;;;;;;;6.76;100.00;100509.34;5042539;28;19982;-74
2022/04/04 12:41:00;;;;;;;;;;;;;;;6.77;100.00;100511.06;5029794;28;20364;-72
2022/04/04 12:43:26;;;;;;;;;;;;;;;6.81;100.00;100503.97;5044109;28;19920;-73
2022/04/04 12:45:52;;;;;;;;;;;;;;;6.83;100.00;100507.38;5044432;28;19920;-72
2022/04/04 12:48:17;;;;;;;;;;;;;;;6.86;100.00;100509.84;5042875;28;19974;-71